EDT,Max TemperatureF,Mean TemperatureF,Min TemperatureF,Max Dew PointF,MeanDew PointF,Min DewpointF,Max Humidity, Mean Humidity, Min Humidity, Max Sea Level PressureIn, Mean Sea Level PressureIn, Min Sea Level PressureIn, Max VisibilityMiles, Mean VisibilityMiles, Min VisibilityMiles, Max Wind SpeedMPH, Mean Wind SpeedMPH, Max Gust SpeedMPH,PrecipitationIn, CloudCover, Events, WindDirDegrees
2012-10-1,68,55,42,57,50,43,100,88,56,29.98,29.94,29.91,10,7,0,9,2,16,0.00,3,Fog-Rain,160
2012-10-2,62,58,55,63,60,55,100,100,94,29.97,29.93,29.90,10,4,0,5,1,,0.52,8,Fog-Rain,38
2012-10-3,78,70,62,70,66,63,100,95,61,30.13,30.06,29.97,10,6,0,7,1,,0.00,4,Fog-Rain,215
2012-10-4,77,66,55,68,61,52,100,83,47,30.18,30.14,30.12,10,8,2,13,2,18,0.00,3,Rain,287
2012-10-5,78,66,53,61,56,52,100,74,50,30.17,30.09,29.95,10,10,4,9,5,,0.00,2,,215
2012-10-6,69,56,44,59,51,41,94,78,55,30.09,29.95,29.85,10,10,10,30,6,31,0.00,3,,265
2012-10-7,50,44,39,48,43,39,100,89,76,30.19,30.10,30.04,10,10,7,8,2,,0.03,6,Rain,240
2012-10-8,44,40,35,43,40,36,100,96,87,30.30,30.25,30.18,10,9,5,9,2,,0.04,4,Rain,327
2012-10-9,59,50,41,52,45,41,100,86,59,30.23,30.16,30.05,10,10,7,6,1,,0.00,7,,352
2012-10-10,68,52,37,52,44,36,100,77,43,30.11,29.99,29.88,10,9,3,17,4,26,0.00,3,,260
2012-10-11,60,50,41,39,34,30,93,57,39,30.30,30.21,30.12,10,10,10,16,8,24,0.00,2,,269
2012-10-12,59,48,35,43,38,34,100,71,45,30.43,30.25,30.15,10,10,10,17,5,25,0.00,2,,301
2012-10-13,59,44,30,41,35,30,100,73,48,30.51,30.41,30.26,10,10,7,12,3,18,0.00,1,,165
2012-10-14,71,56,42,55,49,41,93,72,53,30.22,30.08,29.90,10,10,10,13,6,18,0.00,3,,193
2012-10-15,69,61,53,63,54,45,100,77,49,29.90,29.78,29.69,10,10,7,25,8,33,0.00,4,Rain,249
2012-10-16,60,50,41,45,41,37,87,67,45,29.95,29.90,29.85,10,10,10,17,10,26,0.00,3,,307
2012-10-17,66,50,35,46,42,36,100,80,49,30.00,29.94,29.89,10,9,4,9,2,,0.00,2,,148
2012-10-18,68,56,44,59,51,43,100,86,60,29.92,29.85,29.79,10,10,1,18,5,29,0.93,3,Rain-Thunderstorm,154
2012-10-19,68,60,53,59,54,43,100,86,63,29.79,29.71,29.62,10,10,3,8,2,,0.00,5,Rain,247
2012-10-20,62,52,42,46,41,37,100,70,42,29.95,29.80,29.69,10,10,10,16,4,21,0.00,4,,276
2012-10-21,62,52,41,43,40,37,93,68,42,30.15,30.08,29.97,10,10,10,15,6,20,0.00,2,,282
2012-10-22,69,52,35,50,43,36,100,73,43,30.22,30.15,30.10,10,10,2,8,1,,0.00,2,,196
2012-10-23,78,64,51,59,53,46,94,71,47,30.16,30.08,30.04,10,10,5,8,3,,0.00,3,,201
2012-10-24,78,66,53,57,54,54,100,74,42,30.15,30.11,30.07,10,10,5,8,2,,0.00,2,,243
2012-10-25,69,60,50,61,56,50,100,89,68,30.20,30.16,30.12,10,8,3,10,2,,0.00,2,,92
2012-10-26,64,60,55,61,58,55,100,90,77,30.19,30.13,30.06,10,8,5,7,3,,0.00,7,,124
2012-10-27,64,60,57,59,55,50,100,83,59,30.05,29.95,29.89,10,10,7,6,2,,0.00,7,,32
2012-10-28,59,54,48,54,51,46,100,88,72,29.88,29.77,29.67,10,8,4,10,5,17,0.19,8,Rain,1
2012-10-29,48,42,37,48,45,37,100,99,93,29.66,29.35,28.78,10,6,3,40,16,60,2.06,8,Rain,314
2012-10-30,41,39,37,39,37,36,100,95,87,29.44,29.15,28.77,10,9,3,36,17,47,0.28,8,Rain,225
2012-10-31,48,42,35,37,36,34,100,77,58,29.65,29.54,29.44,10,10,10,14,5,20,0.01,6,,231